Veurne, Belgium
Current Conditions -  °F | °C
As of 12:55 AM on Saturday 25 Oct 2014 (Local Time) from EBFN Reporting Station
Drizzle Drizzle  
Wind Chill: 55°   Ceiling: 1000
Heat Index: 55°   Visibility: 2mi
Dew Point: 54°   Wind: 10mph
Humidity: 94%   Direction: 220°SW
Pressure: 30"   Gusts: NA
Location:  51.07°N, 2.66°E
Report Text: EBFN 242255Z 22009KT 3200 -DZ FEW005 BKN010 BKN014 13/12 Q1016 YLO
Loading
Personal Weather Stations






























Interactive Weather Map New forecast layout! Learn more

10-Day Weather Forecast

Advertisements
Track Severe Weather on mobile